Hlavní strana
METAR-TAF:

METAR-TAF

Letiště :

Letiště Vodochody

Praha, Česká republika

zeměpisná šířka: 50-12-59N, zeměpisná délka: 014-23-42E, výška: 280 m

Aktuální stav počasí

Zpráva byla vytvořena před 14 hodinami a 48 minutami, v 11:00 UTC
Severní vítr 8 kt, proměnlivý mezi západoseverozápadním a východním
Teplota 24°C
Vlhkost vzduchu 50%
Tlak 1021 hPa
Viditelnost 10 km a více
Žádná oblačnost pod 1500 m, nevyskytují se cumulonimby.

METAR: LKVO 181100Z 35008KT 290V100 CAVOK 24/13 Q1021

Čas: 03:48 (01:48 UTC)


TAF: chybějící

Stav a předpovědi počasí z více než 4 000 letišť (zprávy METAR a TAF).

Červené a žluté tečky na mapě představují dostupné meteorologické stanice.

Když kurzor umístíte na tečku, zobrazí se název stanice.

Pak kliknutím zobrazíte stav a předpověď počasí.

Chcete-li změnit mapu, kliknutím na zelené tlačítko se znaménkem +mapu přiblížíte, kliknutím na zelené tlačítko se znaménkem – mapu oddálíte a kliknutím na zelené šipky přejdete na sousední mapy.


METAR-TAF: